sensor_id;sensor_type;location;lat;lon;timestamp;temperature;humidity
11925;DHT22;6022;48.768;18.608;2024-03-08T00:00:40;4.90;99.90
11925;DHT22;6022;48.768;18.608;2024-03-08T00:03:13;5.20;99.90
11925;DHT22;6022;48.768;18.608;2024-03-08T00:05:43;4.90;99.90
11925;DHT22;6022;48.768;18.608;2024-03-08T00:08:13;5.00;99.90
11925;DHT22;6022;48.768;18.608;2024-03-08T00:10:43;4.90;99.90
11925;DHT22;6022;48.768;18.608;2024-03-08T00:13:12;4.90;99.90
11925;DHT22;6022;48.768;18.608;2024-03-08T00:15:44;4.80;99.90
11925;DHT22;6022;48.768;18.608;2024-03-08T00:18:16;5.10;99.90
11925;DHT22;6022;48.768;18.608;2024-03-08T00:20:44;4.70;99.90
11925;DHT22;6022;48.768;18.608;2024-03-08T00:23:13;4.70;99.90
11925;DHT22;6022;48.768;18.608;2024-03-08T00:25:43;4.80;99.90
11925;DHT22;6022;48.768;18.608;2024-03-08T00:28:11;4.70;99.90
11925;DHT22;6022;48.768;18.608;2024-03-08T00:30:43;4.80;99.90
11925;DHT22;6022;48.768;18.608;2024-03-08T00:33:13;4.70;99.90
11925;DHT22;6022;48.768;18.608;2024-03-08T00:35:42;4.80;99.90
11925;DHT22;6022;48.768;18.608;2024-03-08T00:38:13;4.90;99.90
11925;DHT22;6022;48.768;18.608;2024-03-08T00:40:41;4.70;99.90
11925;DHT22;6022;48.768;18.608;2024-03-08T00:43:12;4.80;99.90
11925;DHT22;6022;48.768;18.608;2024-03-08T00:45:42;4.80;99.90
11925;DHT22;6022;48.768;18.608;2024-03-08T00:48:11;4.90;99.90
11925;DHT22;6022;48.768;18.608;2024-03-08T00:50:39;4.70;99.90
11925;DHT22;6022;48.768;18.608;2024-03-08T00:53:08;4.70;99.90
11925;DHT22;6022;48.768;18.608;2024-03-08T00:55:38;4.70;99.90
11925;DHT22;6022;48.768;18.608;2024-03-08T00:58:08;4.80;99.90
11925;DHT22;6022;48.768;18.608;2024-03-08T01:00:37;4.80;99.90
11925;DHT22;6022;48.768;18.608;2024-03-08T01:03:08;4.90;99.90
11925;DHT22;6022;48.768;18.608;2024-03-08T01:05:38;4.70;99.90
11925;DHT22;6022;48.768;18.608;2024-03-08T01:08:08;4.70;99.90
11925;DHT22;6022;48.768;18.608;2024-03-08T01:10:38;4.40;99.90
11925;DHT22;6022;48.768;18.608;2024-03-08T01:13:07;4.70;99.90
11925;DHT22;6022;48.768;18.608;2024-03-08T01:15:37;4.70;99.90
11925;DHT22;6022;48.768;18.608;2024-03-08T01:18:10;4.80;99.90
11925;DHT22;6022;48.768;18.608;2024-03-08T01:20:38;4.50;99.90
11925;DHT22;6022;48.768;18.608;2024-03-08T01:23:08;4.80;99.90
11925;DHT22;6022;48.768;18.608;2024-03-08T01:25:38;4.70;99.90
11925;DHT22;6022;48.768;18.608;2024-03-08T01:28:08;4.80;99.90
11925;DHT22;6022;48.768;18.608;2024-03-08T01:30:37;4.70;99.90
11925;DHT22;6022;48.768;18.608;2024-03-08T01:33:06;4.90;99.90
11925;DHT22;6022;48.768;18.608;2024-03-08T01:35:34;4.80;99.90
11925;DHT22;6022;48.768;18.608;2024-03-08T01:38:02;4.70;99.90
11925;DHT22;6022;48.768;18.608;2024-03-08T01:40:34;4.70;99.90
11925;DHT22;6022;48.768;18.608;2024-03-08T01:43:20;4.80;99.90
11925;DHT22;6022;48.768;18.608;2024-03-08T01:45:57;4.80;99.90
11925;DHT22;6022;48.768;18.608;2024-03-08T01:48:30;4.60;99.90
11925;DHT22;6022;48.768;18.608;2024-03-08T01:51:00;4.60;99.90
11925;DHT22;6022;48.768;18.608;2024-03-08T01:53:28;4.60;99.90
11925;DHT22;6022;48.768;18.608;2024-03-08T01:56:01;4.40;99.90
11925;DHT22;6022;48.768;18.608;2024-03-08T01:58:30;4.60;99.90
11925;DHT22;6022;48.768;18.608;2024-03-08T02:01:03;4.70;99.90
11925;DHT22;6022;48.768;18.608;2024-03-08T02:03:32;4.60;99.90
11925;DHT22;6022;48.768;18.608;2024-03-08T02:06:01;4.70;99.90
11925;DHT22;6022;48.768;18.608;2024-03-08T02:08:29;4.60;99.90
11925;DHT22;6022;48.768;18.608;2024-03-08T02:11:00;4.50;99.90
11925;DHT22;6022;48.768;18.608;2024-03-08T02:13:30;4.40;99.90
11925;DHT22;6022;48.768;18.608;2024-03-08T02:16:01;4.40;99.90
11925;DHT22;6022;48.768;18.608;2024-03-08T02:18:31;4.80;99.90
11925;DHT22;6022;48.768;18.608;2024-03-08T02:21:03;4.20;99.90
11925;DHT22;6022;48.768;18.608;2024-03-08T02:23:32;4.50;99.90
11925;DHT22;6022;48.768;18.608;2024-03-08T02:26:05;4.40;99.90
11925;DHT22;6022;48.768;18.608;2024-03-08T02:28:35;4.50;99.90
11925;DHT22;6022;48.768;18.608;2024-03-08T02:31:06;4.70;99.90
11925;DHT22;6022;48.768;18.608;2024-03-08T02:33:36;4.70;99.90
11925;DHT22;6022;48.768;18.608;2024-03-08T02:36:04;4.20;99.90
11925;DHT22;6022;48.768;18.608;2024-03-08T02:38:34;4.20;99.90
11925;DHT22;6022;48.768;18.608;2024-03-08T02:41:02;4.70;99.90
11925;DHT22;6022;48.768;18.608;2024-03-08T02:43:32;4.40;99.90
11925;DHT22;6022;48.768;18.608;2024-03-08T02:46:02;4.40;99.90
11925;DHT22;6022;48.768;18.608;2024-03-08T02:48:30;6.00;99.90
11925;DHT22;6022;48.768;18.608;2024-03-08T02:50:58;4.40;99.90
11925;DHT22;6022;48.768;18.608;2024-03-08T02:53:27;4.70;99.90
11925;DHT22;6022;48.768;18.608;2024-03-08T02:55:55;4.50;99.90
11925;DHT22;6022;48.768;18.608;2024-03-08T02:58:25;4.60;99.90
11925;DHT22;6022;48.768;18.608;2024-03-08T03:00:53;4.40;99.90
11925;DHT22;6022;48.768;18.608;2024-03-08T03:03:22;4.60;99.90
11925;DHT22;6022;48.768;18.608;2024-03-08T03:05:51;4.60;99.90
11925;DHT22;6022;48.768;18.608;2024-03-08T03:08:24;4.50;99.90
11925;DHT22;6022;48.768;18.608;2024-03-08T03:10:57;4.40;99.90
11925;DHT22;6022;48.768;18.608;2024-03-08T03:13:28;4.50;99.90
11925;DHT22;6022;48.768;18.608;2024-03-08T03:15:57;4.60;99.90
11925;DHT22;6022;48.768;18.608;2024-03-08T03:18:28;4.50;99.90
11925;DHT22;6022;48.768;18.608;2024-03-08T03:20:57;4.30;99.90
11925;DHT22;6022;48.768;18.608;2024-03-08T03:23:26;4.50;99.90
11925;DHT22;6022;48.768;18.608;2024-03-08T03:25:55;4.20;99.90
11925;DHT22;6022;48.768;18.608;2024-03-08T03:28:25;4.20;99.90
11925;DHT22;6022;48.768;18.608;2024-03-08T03:30:56;4.70;99.90
11925;DHT22;6022;48.768;18.608;2024-03-08T03:33:26;4.60;99.90
11925;DHT22;6022;48.768;18.608;2024-03-08T03:35:54;4.20;99.90
11925;DHT22;6022;48.768;18.608;2024-03-08T03:38:23;4.40;99.90
11925;DHT22;6022;48.768;18.608;2024-03-08T03:40:53;4.70;99.90
11925;DHT22;6022;48.768;18.608;2024-03-08T03:43:25;4.70;99.90
11925;DHT22;6022;48.768;18.608;2024-03-08T03:45:54;4.60;99.90
11925;DHT22;6022;48.768;18.608;2024-03-08T03:48:22;4.40;99.90
11925;DHT22;6022;48.768;18.608;2024-03-08T03:50:51;4.50;99.90
11925;DHT22;6022;48.768;18.608;2024-03-08T03:53:20;4.60;99.90
11925;DHT22;6022;48.768;18.608;2024-03-08T03:55:49;4.60;99.90
11925;DHT22;6022;48.768;18.608;2024-03-08T03:58:20;4.30;99.90
11925;DHT22;6022;48.768;18.608;2024-03-08T04:00:51;4.30;99.90
11925;DHT22;6022;48.768;18.608;2024-03-08T04:03:20;4.30;99.90
11925;DHT22;6022;48.768;18.608;2024-03-08T04:05:49;4.60;99.90
11925;DHT22;6022;48.768;18.608;2024-03-08T04:08:26;4.60;99.90
11925;DHT22;6022;48.768;18.608;2024-03-08T04:10:55;4.70;99.90
11925;DHT22;6022;48.768;18.608;2024-03-08T04:13:26;4.10;99.90
11925;DHT22;6022;48.768;18.608;2024-03-08T04:15:55;4.40;99.90
11925;DHT22;6022;48.768;18.608;2024-03-08T04:18:24;4.50;99.90
11925;DHT22;6022;48.768;18.608;2024-03-08T04:20:53;4.40;99.90
11925;DHT22;6022;48.768;18.608;2024-03-08T04:23:22;4.50;99.90
11925;DHT22;6022;48.768;18.608;2024-03-08T04:25:51;4.40;99.90
11925;DHT22;6022;48.768;18.608;2024-03-08T04:28:20;4.40;99.90
11925;DHT22;6022;48.768;18.608;2024-03-08T04:30:57;4.40;99.90
11925;DHT22;6022;48.768;18.608;2024-03-08T04:33:27;4.50;99.90
11925;DHT22;6022;48.768;18.608;2024-03-08T04:35:56;4.20;99.90
11925;DHT22;6022;48.768;18.608;2024-03-08T04:38:25;4.10;99.90
11925;DHT22;6022;48.768;18.608;2024-03-08T04:40:54;4.50;99.90
11925;DHT22;6022;48.768;18.608;2024-03-08T04:43:23;4.50;99.90
11925;DHT22;6022;48.768;18.608;2024-03-08T04:45:58;4.60;99.90
11925;DHT22;6022;48.768;18.608;2024-03-08T04:48:28;4.10;99.90
11925;DHT22;6022;48.768;18.608;2024-03-08T04:50:57;4.30;99.90
11925;DHT22;6022;48.768;18.608;2024-03-08T04:53:28;4.20;99.90
11925;DHT22;6022;48.768;18.608;2024-03-08T04:55:58;4.50;99.90
11925;DHT22;6022;48.768;18.608;2024-03-08T04:58:28;4.10;99.90
11925;DHT22;6022;48.768;18.608;2024-03-08T05:00:56;4.40;99.90
11925;DHT22;6022;48.768;18.608;2024-03-08T05:03:26;4.40;99.90
11925;DHT22;6022;48.768;18.608;2024-03-08T05:05:54;4.50;99.90
11925;DHT22;6022;48.768;18.608;2024-03-08T05:08:23;4.20;99.90
11925;DHT22;6022;48.768;18.608;2024-03-08T05:10:54;4.30;99.90
11925;DHT22;6022;48.768;18.608;2024-03-08T05:13:24;4.10;99.90
11925;DHT22;6022;48.768;18.608;2024-03-08T05:15:52;4.30;99.90
11925;DHT22;6022;48.768;18.608;2024-03-08T05:18:21;4.60;99.90
11925;DHT22;6022;48.768;18.608;2024-03-08T05:20:50;4.50;99.90
11925;DHT22;6022;48.768;18.608;2024-03-08T05:23:20;4.40;99.90
11925;DHT22;6022;48.768;18.608;2024-03-08T05:25:52;4.40;99.90
11925;DHT22;6022;48.768;18.608;2024-03-08T05:28:20;4.40;99.90
11925;DHT22;6022;48.768;18.608;2024-03-08T05:30:53;4.30;99.90
11925;DHT22;6022;48.768;18.608;2024-03-08T05:33:24;4.40;99.90
11925;DHT22;6022;48.768;18.608;2024-03-08T05:35:52;4.50;99.90
11925;DHT22;6022;48.768;18.608;2024-03-08T05:38:21;4.60;99.90
11925;DHT22;6022;48.768;18.608;2024-03-08T05:40:51;4.20;99.90
11925;DHT22;6022;48.768;18.608;2024-03-08T05:43:25;4.50;99.90
11925;DHT22;6022;48.768;18.608;2024-03-08T05:45:55;4.50;99.90
11925;DHT22;6022;48.768;18.608;2024-03-08T05:48:23;4.30;99.90
11925;DHT22;6022;48.768;18.608;2024-03-08T05:50:53;5.60;99.90
11925;DHT22;6022;48.768;18.608;2024-03-08T05:53:24;4.70;99.90
11925;DHT22;6022;48.768;18.608;2024-03-08T05:55:55;4.50;99.90
11925;DHT22;6022;48.768;18.608;2024-03-08T05:58:25;4.40;99.90
11925;DHT22;6022;48.768;18.608;2024-03-08T06:00:57;4.60;99.90
11925;DHT22;6022;48.768;18.608;2024-03-08T06:03:29;4.50;99.90
11925;DHT22;6022;48.768;18.608;2024-03-08T06:06:00;4.50;99.90
11925;DHT22;6022;48.768;18.608;2024-03-08T06:08:28;4.40;99.90
11925;DHT22;6022;48.768;18.608;2024-03-08T06:10:58;4.30;99.90
11925;DHT22;6022;48.768;18.608;2024-03-08T06:13:33;4.20;99.90
11925;DHT22;6022;48.768;18.608;2024-03-08T06:16:06;4.10;99.90
11925;DHT22;6022;48.768;18.608;2024-03-08T06:18:36;4.50;99.90
11925;DHT22;6022;48.768;18.608;2024-03-08T06:21:05;4.30;99.90
11925;DHT22;6022;48.768;18.608;2024-03-08T06:23:35;4.50;99.90
11925;DHT22;6022;48.768;18.608;2024-03-08T06:26:06;4.40;99.90
11925;DHT22;6022;48.768;18.608;2024-03-08T06:28:36;4.20;99.90
11925;DHT22;6022;48.768;18.608;2024-03-08T06:31:05;4.30;99.90
11925;DHT22;6022;48.768;18.608;2024-03-08T06:33:35;4.40;99.90
11925;DHT22;6022;48.768;18.608;2024-03-08T06:36:03;4.30;99.90
11925;DHT22;6022;48.768;18.608;2024-03-08T06:38:33;3.90;99.90
11925;DHT22;6022;48.768;18.608;2024-03-08T06:41:04;4.50;99.90
11925;DHT22;6022;48.768;18.608;2024-03-08T06:43:34;4.30;99.90
11925;DHT22;6022;48.768;18.608;2024-03-08T06:46:04;4.30;99.90
11925;DHT22;6022;48.768;18.608;2024-03-08T06:48:35;4.50;99.90
11925;DHT22;6022;48.768;18.608;2024-03-08T06:51:07;4.40;99.90
11925;DHT22;6022;48.768;18.608;2024-03-08T06:53:38;4.50;99.90
11925;DHT22;6022;48.768;18.608;2024-03-08T06:56:10;4.70;99.90
11925;DHT22;6022;48.768;18.608;2024-03-08T06:58:39;4.60;99.90
11925;DHT22;6022;48.768;18.608;2024-03-08T07:01:08;4.30;99.90
11925;DHT22;6022;48.768;18.608;2024-03-08T07:03:42;4.70;99.90
11925;DHT22;6022;48.768;18.608;2024-03-08T07:06:12;4.60;99.90
11925;DHT22;6022;48.768;18.608;2024-03-08T07:08:48;4.50;99.90
11925;DHT22;6022;48.768;18.608;2024-03-08T07:11:16;4.60;99.90
11925;DHT22;6022;48.768;18.608;2024-03-08T07:13:49;4.70;99.90
11925;DHT22;6022;48.768;18.608;2024-03-08T07:16:17;4.70;99.90
11925;DHT22;6022;48.768;18.608;2024-03-08T07:18:48;4.60;99.90
11925;DHT22;6022;48.768;18.608;2024-03-08T07:21:20;4.60;99.90
11925;DHT22;6022;48.768;18.608;2024-03-08T07:23:49;4.60;99.90
11925;DHT22;6022;48.768;18.608;2024-03-08T07:26:30;4.60;99.90
11925;DHT22;6022;48.768;18.608;2024-03-08T07:28:58;4.60;99.90
11925;DHT22;6022;48.768;18.608;2024-03-08T07:31:27;4.70;99.90
11925;DHT22;6022;48.768;18.608;2024-03-08T07:34:24;4.80;99.90
11925;DHT22;6022;48.768;18.608;2024-03-08T07:36:59;5.00;99.90
11925;DHT22;6022;48.768;18.608;2024-03-08T07:39:32;5.10;99.90
11925;DHT22;6022;48.768;18.608;2024-03-08T07:42:02;5.00;99.90
11925;DHT22;6022;48.768;18.608;2024-03-08T07:44:33;5.30;99.90
11925;DHT22;6022;48.768;18.608;2024-03-08T07:50:56;5.40;99.90
11925;DHT22;6022;48.768;18.608;2024-03-08T07:53:27;5.60;99.90
11925;DHT22;6022;48.768;18.608;2024-03-08T08:01:01;5.80;99.90
11925;DHT22;6022;48.768;18.608;2024-03-08T08:04:04;5.60;99.90
11925;DHT22;6022;48.768;18.608;2024-03-08T08:06:54;5.70;99.90
11925;DHT22;6022;48.768;18.608;2024-03-08T08:09:57;5.70;99.90
11925;DHT22;6022;48.768;18.608;2024-03-08T08:13:05;5.90;99.90
11925;DHT22;6022;48.768;18.608;2024-03-08T08:16:13;6.50;99.90
11925;DHT22;6022;48.768;18.608;2024-03-08T08:19:49;7.00;99.90
11925;DHT22;6022;48.768;18.608;2024-03-08T08:22:49;7.00;99.90
11925;DHT22;6022;48.768;18.608;2024-03-08T08:25:36;7.10;99.90
11925;DHT22;6022;48.768;18.608;2024-03-08T08:29:04;7.50;99.90
11925;DHT22;6022;48.768;18.608;2024-03-08T08:32:08;7.40;99.90
11925;DHT22;6022;48.768;18.608;2024-03-08T08:35:54;7.20;99.90
11925;DHT22;6022;48.768;18.608;2024-03-08T08:38:36;8.40;99.90
11925;DHT22;6022;48.768;18.608;2024-03-08T08:41:41;9.00;99.90
11925;DHT22;6022;48.768;18.608;2024-03-08T08:44:25;9.10;99.90
11925;DHT22;6022;48.768;18.608;2024-03-08T08:47:27;9.00;99.90
11925;DHT22;6022;48.768;18.608;2024-03-08T08:50:11;8.00;99.90
11925;DHT22;6022;48.768;18.608;2024-03-08T08:53:25;8.00;99.90
11925;DHT22;6022;48.768;18.608;2024-03-08T08:56:18;7.70;99.90
11925;DHT22;6022;48.768;18.608;2024-03-08T08:58:47;7.70;99.90
11925;DHT22;6022;48.768;18.608;2024-03-08T09:01:16;7.30;99.90
11925;DHT22;6022;48.768;18.608;2024-03-08T09:03:51;7.70;99.90
11925;DHT22;6022;48.768;18.608;2024-03-08T09:06:19;7.30;99.90
11925;DHT22;6022;48.768;18.608;2024-03-08T09:08:47;7.60;99.90
11925;DHT22;6022;48.768;18.608;2024-03-08T09:11:15;7.50;99.90
11925;DHT22;6022;48.768;18.608;2024-03-08T09:16:46;8.50;99.90
11925;DHT22;6022;48.768;18.608;2024-03-08T09:19:14;8.30;99.90
11925;DHT22;6022;48.768;18.608;2024-03-08T09:21:44;8.60;99.90
11925;DHT22;6022;48.768;18.608;2024-03-08T09:24:56;8.70;99.90
11925;DHT22;6022;48.768;18.608;2024-03-08T09:27:25;8.80;99.90
11925;DHT22;6022;48.768;18.608;2024-03-08T09:31:09;8.60;99.90
11925;DHT22;6022;48.768;18.608;2024-03-08T09:37:52;8.70;99.90
11925;DHT22;6022;48.768;18.608;2024-03-08T09:40:55;8.70;99.90
11925;DHT22;6022;48.768;18.608;2024-03-08T09:43:17;8.80;99.90
11925;DHT22;6022;48.768;18.608;2024-03-08T09:45:49;9.20;99.90
11925;DHT22;6022;48.768;18.608;2024-03-08T09:48:19;9.30;99.90
11925;DHT22;6022;48.768;18.608;2024-03-08T09:50:49;9.20;99.90
11925;DHT22;6022;48.768;18.608;2024-03-08T09:53:19;9.30;99.90
11925;DHT22;6022;48.768;18.608;2024-03-08T09:55:57;8.80;99.90
11925;DHT22;6022;48.768;18.608;2024-03-08T09:58:26;8.80;99.90
11925;DHT22;6022;48.768;18.608;2024-03-08T10:01:01;8.60;99.90
11925;DHT22;6022;48.768;18.608;2024-03-08T10:03:30;8.80;99.90
11925;DHT22;6022;48.768;18.608;2024-03-08T10:06:03;8.60;99.90
11925;DHT22;6022;48.768;18.608;2024-03-08T10:08:33;8.60;99.90
11925;DHT22;6022;48.768;18.608;2024-03-08T10:11:04;8.60;99.90
11925;DHT22;6022;48.768;18.608;2024-03-08T10:13:36;8.60;99.90
11925;DHT22;6022;48.768;18.608;2024-03-08T10:16:05;8.40;99.90
11925;DHT22;6022;48.768;18.608;2024-03-08T10:19:08;8.30;99.90
11925;DHT22;6022;48.768;18.608;2024-03-08T10:21:53;8.30;99.90
11925;DHT22;6022;48.768;18.608;2024-03-08T10:25:21;8.40;99.90
11925;DHT22;6022;48.768;18.608;2024-03-08T10:27:54;8.60;99.90
11925;DHT22;6022;48.768;18.608;2024-03-08T10:31:04;8.70;99.90
11925;DHT22;6022;48.768;18.608;2024-03-08T10:33:34;8.10;99.90
11925;DHT22;6022;48.768;18.608;2024-03-08T10:36:02;8.50;99.90
11925;DHT22;6022;48.768;18.608;2024-03-08T10:38:36;8.60;99.90
11925;DHT22;6022;48.768;18.608;2024-03-08T10:41:07;8.50;99.90
11925;DHT22;6022;48.768;18.608;2024-03-08T10:49:38;9.30;99.90
11925;DHT22;6022;48.768;18.608;2024-03-08T10:52:11;9.30;99.90
11925;DHT22;6022;48.768;18.608;2024-03-08T10:54:42;9.30;99.90
11925;DHT22;6022;48.768;18.608;2024-03-08T10:57:13;9.20;99.90
11925;DHT22;6022;48.768;18.608;2024-03-08T10:59:47;9.50;99.90
11925;DHT22;6022;48.768;18.608;2024-03-08T11:02:20;9.80;99.90
11925;DHT22;6022;48.768;18.608;2024-03-08T11:04:51;9.50;99.90
11925;DHT22;6022;48.768;18.608;2024-03-08T11:07:22;10.10;99.90
11925;DHT22;6022;48.768;18.608;2024-03-08T11:09:50;9.60;99.90
11925;DHT22;6022;48.768;18.608;2024-03-08T11:12:28;10.10;99.90
11925;DHT22;6022;48.768;18.608;2024-03-08T11:14:59;10.00;99.90
11925;DHT22;6022;48.768;18.608;2024-03-08T11:19:58;10.10;99.90
11925;DHT22;6022;48.768;18.608;2024-03-08T11:22:33;10.20;99.90
11925;DHT22;6022;48.768;18.608;2024-03-08T11:25:38;10.10;99.90
11925;DHT22;6022;48.768;18.608;2024-03-08T11:28:18;10.30;99.90
11925;DHT22;6022;48.768;18.608;2024-03-08T11:33:40;11.20;99.90
11925;DHT22;6022;48.768;18.608;2024-03-08T11:36:24;11.30;99.90
11925;DHT22;6022;48.768;18.608;2024-03-08T11:38:53;11.40;99.90
11925;DHT22;6022;48.768;18.608;2024-03-08T11:41:27;11.40;99.90
11925;DHT22;6022;48.768;18.608;2024-03-08T11:44:05;10.90;99.90
11925;DHT22;6022;48.768;18.608;2024-03-08T11:46:35;11.10;99.90
11925;DHT22;6022;48.768;18.608;2024-03-08T11:49:05;11.10;99.90
11925;DHT22;6022;48.768;18.608;2024-03-08T11:51:33;11.40;99.90
11925;DHT22;6022;48.768;18.608;2024-03-08T11:54:15;11.80;99.90
11925;DHT22;6022;48.768;18.608;2024-03-08T11:56:52;11.90;99.90
11925;DHT22;6022;48.768;18.608;2024-03-08T12:00:00;11.70;99.90
11925;DHT22;6022;48.768;18.608;2024-03-08T12:02:34;11.40;99.90
11925;DHT22;6022;48.768;18.608;2024-03-08T12:05:05;11.50;99.90
11925;DHT22;6022;48.768;18.608;2024-03-08T12:07:38;11.50;99.90
11925;DHT22;6022;48.768;18.608;2024-03-08T12:10:15;11.50;99.90
11925;DHT22;6022;48.768;18.608;2024-03-08T12:12:55;11.50;99.90
11925;DHT22;6022;48.768;18.608;2024-03-08T12:15:36;11.40;99.90
11925;DHT22;6022;48.768;18.608;2024-03-08T12:18:51;11.20;99.90
11925;DHT22;6022;48.768;18.608;2024-03-08T12:21:26;11.50;99.90
11925;DHT22;6022;48.768;18.608;2024-03-08T12:24:13;11.30;99.90
11925;DHT22;6022;48.768;18.608;2024-03-08T12:26:51;11.30;99.90
11925;DHT22;6022;48.768;18.608;2024-03-08T12:29:27;11.00;99.90
11925;DHT22;6022;48.768;18.608;2024-03-08T12:31:58;10.90;99.90
11925;DHT22;6022;48.768;18.608;2024-03-08T12:34:29;10.80;99.90
11925;DHT22;6022;48.768;18.608;2024-03-08T12:49:04;10.60;99.90
11925;DHT22;6022;48.768;18.608;2024-03-08T13:10:15;9.90;99.90
11925;DHT22;6022;48.768;18.608;2024-03-08T13:13:18;9.90;99.90
11925;DHT22;6022;48.768;18.608;2024-03-08T13:15:47;10.00;99.90
11925;DHT22;6022;48.768;18.608;2024-03-08T13:18:31;9.90;99.90
11925;DHT22;6022;48.768;18.608;2024-03-08T13:21:45;9.90;99.90
11925;DHT22;6022;48.768;18.608;2024-03-08T13:24:28;9.90;99.90
11925;DHT22;6022;48.768;18.608;2024-03-08T13:27:31;9.90;99.90
11925;DHT22;6022;48.768;18.608;2024-03-08T13:30:58;10.00;99.90
11925;DHT22;6022;48.768;18.608;2024-03-08T13:34:14;9.90;99.90
11925;DHT22;6022;48.768;18.608;2024-03-08T13:37:43;9.90;99.90
11925;DHT22;6022;48.768;18.608;2024-03-08T13:50:00;10.10;99.90
11925;DHT22;6022;48.768;18.608;2024-03-08T13:53:17;10.00;99.90
11925;DHT22;6022;48.768;18.608;2024-03-08T13:55:54;9.90;99.90
11925;DHT22;6022;48.768;18.608;2024-03-08T13:58:24;10.00;99.90
11925;DHT22;6022;48.768;18.608;2024-03-08T14:01:04;9.90;99.90
11925;DHT22;6022;48.768;18.608;2024-03-08T14:05:30;9.90;99.90
11925;DHT22;6022;48.768;18.608;2024-03-08T14:09:25;9.60;99.90
11925;DHT22;6022;48.768;18.608;2024-03-08T14:12:10;9.70;99.90
11925;DHT22;6022;48.768;18.608;2024-03-08T14:18:43;9.70;99.90
11925;DHT22;6022;48.768;18.608;2024-03-08T14:21:12;9.50;99.90
11925;DHT22;6022;48.768;18.608;2024-03-08T14:23:44;9.60;99.90
11925;DHT22;6022;48.768;18.608;2024-03-08T14:26:18;9.50;99.90
11925;DHT22;6022;48.768;18.608;2024-03-08T14:28:48;9.40;99.90
11925;DHT22;6022;48.768;18.608;2024-03-08T14:31:22;9.40;99.90
11925;DHT22;6022;48.768;18.608;2024-03-08T14:33:54;9.30;99.90
11925;DHT22;6022;48.768;18.608;2024-03-08T14:36:38;9.40;99.90
11925;DHT22;6022;48.768;18.608;2024-03-08T14:39:09;9.30;99.90
11925;DHT22;6022;48.768;18.608;2024-03-08T14:41:39;9.00;99.90
11925;DHT22;6022;48.768;18.608;2024-03-08T14:44:10;9.30;99.90
11925;DHT22;6022;48.768;18.608;2024-03-08T14:46:41;9.20;99.90
11925;DHT22;6022;48.768;18.608;2024-03-08T14:49:11;9.20;99.90
11925;DHT22;6022;48.768;18.608;2024-03-08T14:51:39;9.10;99.90
11925;DHT22;6022;48.768;18.608;2024-03-08T14:54:10;9.10;99.90
11925;DHT22;6022;48.768;18.608;2024-03-08T14:56:45;9.10;99.90
11925;DHT22;6022;48.768;18.608;2024-03-08T14:59:25;9.10;99.90
11925;DHT22;6022;48.768;18.608;2024-03-08T15:01:59;9.30;99.90
11925;DHT22;6022;48.768;18.608;2024-03-08T15:04:29;9.10;99.90
11925;DHT22;6022;48.768;18.608;2024-03-08T15:07:03;8.80;99.90
11925;DHT22;6022;48.768;18.608;2024-03-08T15:09:33;8.80;99.90
11925;DHT22;6022;48.768;18.608;2024-03-08T15:12:08;9.10;99.90
11925;DHT22;6022;48.768;18.608;2024-03-08T15:14:42;9.10;99.90
11925;DHT22;6022;48.768;18.608;2024-03-08T15:17:11;8.90;99.90
11925;DHT22;6022;48.768;18.608;2024-03-08T15:19:48;9.10;99.90
11925;DHT22;6022;48.768;18.608;2024-03-08T15:22:20;9.10;99.90
11925;DHT22;6022;48.768;18.608;2024-03-08T15:24:48;9.10;99.90
11925;DHT22;6022;48.768;18.608;2024-03-08T15:27:17;9.10;99.90
11925;DHT22;6022;48.768;18.608;2024-03-08T15:29:45;9.00;99.90
11925;DHT22;6022;48.768;18.608;2024-03-08T15:32:16;9.00;99.90
11925;DHT22;6022;48.768;18.608;2024-03-08T15:34:49;9.30;99.90
11925;DHT22;6022;48.768;18.608;2024-03-08T15:37:28;9.00;99.90
11925;DHT22;6022;48.768;18.608;2024-03-08T15:39:57;9.20;99.90
11925;DHT22;6022;48.768;18.608;2024-03-08T15:42:25;8.90;99.90
11925;DHT22;6022;48.768;18.608;2024-03-08T15:44:54;9.00;99.90
11925;DHT22;6022;48.768;18.608;2024-03-08T15:50:53;9.00;99.90
11925;DHT22;6022;48.768;18.608;2024-03-08T15:53:24;9.00;99.90
11925;DHT22;6022;48.768;18.608;2024-03-08T15:55:52;9.00;99.90
11925;DHT22;6022;48.768;18.608;2024-03-08T15:58:21;8.90;99.90
11925;DHT22;6022;48.768;18.608;2024-03-08T16:00:50;8.90;99.90
11925;DHT22;6022;48.768;18.608;2024-03-08T16:03:20;8.90;99.90
11925;DHT22;6022;48.768;18.608;2024-03-08T16:05:51;8.80;99.90
11925;DHT22;6022;48.768;18.608;2024-03-08T16:08:23;8.80;99.90
11925;DHT22;6022;48.768;18.608;2024-03-08T16:10:53;8.80;99.90
11925;DHT22;6022;48.768;18.608;2024-03-08T16:13:48;8.90;99.90
11925;DHT22;6022;48.768;18.608;2024-03-08T16:16:20;8.70;99.90
11925;DHT22;6022;48.768;18.608;2024-03-08T16:18:54;8.90;99.90
11925;DHT22;6022;48.768;18.608;2024-03-08T16:21:23;8.90;99.90
11925;DHT22;6022;48.768;18.608;2024-03-08T16:23:52;8.40;99.90
11925;DHT22;6022;48.768;18.608;2024-03-08T16:26:21;8.50;99.90
11925;DHT22;6022;48.768;18.608;2024-03-08T16:29:22;8.60;99.90
11925;DHT22;6022;48.768;18.608;2024-03-08T16:31:50;8.20;99.90
11925;DHT22;6022;48.768;18.608;2024-03-08T16:34:27;8.70;99.90
11925;DHT22;6022;48.768;18.608;2024-03-08T16:36:55;8.60;99.90
11925;DHT22;6022;48.768;18.608;2024-03-08T16:39:23;8.50;99.90
11925;DHT22;6022;48.768;18.608;2024-03-08T16:41:51;8.30;99.90
11925;DHT22;6022;48.768;18.608;2024-03-08T16:44:19;8.00;99.90
11925;DHT22;6022;48.768;18.608;2024-03-08T16:46:48;8.40;99.90
11925;DHT22;6022;48.768;18.608;2024-03-08T16:49:16;8.10;99.90
11925;DHT22;6022;48.768;18.608;2024-03-08T16:51:45;8.20;99.90
11925;DHT22;6022;48.768;18.608;2024-03-08T16:54:19;8.10;99.90
11925;DHT22;6022;48.768;18.608;2024-03-08T16:56:50;8.20;99.90
11925;DHT22;6022;48.768;18.608;2024-03-08T16:59:18;8.00;99.90
11925;DHT22;6022;48.768;18.608;2024-03-08T17:01:46;8.00;99.90
11925;DHT22;6022;48.768;18.608;2024-03-08T17:04:15;8.30;99.90
11925;DHT22;6022;48.768;18.608;2024-03-08T17:06:45;8.30;99.90
11925;DHT22;6022;48.768;18.608;2024-03-08T17:09:13;8.00;99.90
11925;DHT22;6022;48.768;18.608;2024-03-08T17:11:41;7.90;99.90
11925;DHT22;6022;48.768;18.608;2024-03-08T17:14:10;7.90;99.90
11925;DHT22;6022;48.768;18.608;2024-03-08T17:16:39;7.90;99.90
11925;DHT22;6022;48.768;18.608;2024-03-08T17:19:08;7.90;99.90
11925;DHT22;6022;48.768;18.608;2024-03-08T17:21:35;7.90;99.90
11925;DHT22;6022;48.768;18.608;2024-03-08T17:24:06;7.90;99.90
11925;DHT22;6022;48.768;18.608;2024-03-08T17:26:39;7.80;99.90
11925;DHT22;6022;48.768;18.608;2024-03-08T17:29:06;7.90;99.90
11925;DHT22;6022;48.768;18.608;2024-03-08T17:31:35;7.90;99.90
11925;DHT22;6022;48.768;18.608;2024-03-08T17:34:03;7.40;99.90
11925;DHT22;6022;48.768;18.608;2024-03-08T17:36:32;7.40;99.90
11925;DHT22;6022;48.768;18.608;2024-03-08T17:39:00;7.50;99.90
11925;DHT22;6022;48.768;18.608;2024-03-08T17:41:28;7.80;99.90
11925;DHT22;6022;48.768;18.608;2024-03-08T17:43:56;7.70;99.90
11925;DHT22;6022;48.768;18.608;2024-03-08T17:46:29;7.70;99.90
11925;DHT22;6022;48.768;18.608;2024-03-08T17:48:56;7.60;99.90